Time;durP1;ratioP1;P1;durP2;ratioP2;P2;SDS_P1;SDS_P2;PMS_P1;PMS_P2;Temp;Humidity;BMP_temperature;BMP_pressure;BME280_temperature;BME280_humidity;BME280_pressure;Samples;Min_cycle;Max_cycle;Signal;HPM_P1;HPM_P2
2023/10/11 00:00:32;;;;;;;10.55;5.97;;;16.00;99.90;;;;;;5063785;28;20044;-48
2023/10/11 00:03:14;;;;;;;11.90;6.57;;;16.00;99.90;;;;;;5059557;28;20048;-50
2023/10/11 00:05:40;;;;;;;11.07;6.88;;;16.00;99.90;;;;;;5067397;28;20131;-47
2023/10/11 00:08:08;;;;;;;10.27;7.05;;;16.00;99.90;;;;;;5061192;28;20123;-48
2023/10/11 00:10:43;;;;;;;10.85;6.35;;;16.00;99.90;;;;;;5064167;28;20365;-47
2023/10/11 00:13:15;;;;;;;12.45;7.13;;;16.00;99.90;;;;;;5056716;28;20386;-48
2023/10/11 00:15:49;;;;;;;10.27;6.43;;;16.00;99.90;;;;;;5057596;28;20194;-47
2023/10/11 00:18:24;;;;;;;10.05;6.35;;;16.00;99.90;;;;;;5049660;28;20048;-48
2023/10/11 00:20:51;;;;;;;12.73;6.80;;;16.00;99.90;;;;;;5049154;28;20036;-50
2023/10/11 00:23:21;;;;;;;9.43;6.30;;;16.00;99.90;;;;;;5058520;28;20040;-48
2023/10/11 00:25:49;;;;;;;13.57;7.07;;;16.00;99.90;;;;;;5035953;28;20520;-47
2023/10/11 00:28:14;;;;;;;12.27;6.70;;;16.00;99.90;;;;;;5057303;28;20652;-47
2023/10/11 00:30:40;;;;;;;11.45;6.95;;;16.00;99.90;;;;;;5049290;28;20040;-48
2023/10/11 00:33:10;;;;;;;10.05;6.93;;;15.90;99.90;;;;;;5056141;28;20366;-47
2023/10/11 00:35:47;;;;;;;14.02;7.25;;;16.00;99.90;;;;;;5057012;28;20167;-48
2023/10/11 00:38:18;;;;;;;;;;;15.90;99.90;;;;;;5057214;28;20052;-48
2023/10/11 00:43:50;;;;;;;14.13;7.82;;;15.90;99.90;;;;;;5047182;28;20478;-48
2023/10/11 00:46:22;;;;;;;12.95;7.80;;;15.90;99.90;;;;;;5055896;28;20056;-50
2023/10/11 00:48:57;;;;;;;12.00;7.45;;;15.90;99.90;;;;;;5053134;28;20075;-51
2023/10/11 00:51:31;;;;;;;12.00;7.50;;;15.80;99.90;;;;;;5061555;28;20593;-48
2023/10/11 00:54:02;;;;;;;13.13;7.88;;;15.80;99.90;;;;;;5053736;28;20075;-48
2023/10/11 00:56:34;;;;;;;12.30;7.30;;;15.80;99.90;;;;;;5054229;28;20494;-49
2023/10/11 00:59:03;;;;;;;10.35;7.50;;;15.80;99.90;;;;;;5064190;28;20048;-48
2023/10/11 01:01:29;;;;;;;10.43;8.05;;;15.80;99.90;;;;;;5057800;28;20222;-49
2023/10/11 01:03:55;;;;;;;10.93;7.55;;;15.80;99.90;;;;;;5061220;28;20119;-49
2023/10/11 01:06:25;;;;;;;11.75;7.72;;;16.00;99.90;;;;;;5055612;28;20040;-51
2023/10/11 01:08:52;;;;;;;13.93;8.38;;;16.00;99.90;;;;;;5057143;28;20099;-48
2023/10/11 01:11:18;;;;;;;12.50;7.90;;;16.00;99.90;;;;;;5061986;28;20471;-48
2023/10/11 01:13:50;;;;;;;9.73;7.53;;;15.90;99.90;;;;;;5054066;28;20037;-50
2023/10/11 01:16:18;;;;;;;14.40;8.02;;;15.90;99.90;;;;;;5055141;28;20057;-48
2023/10/11 01:18:43;;;;;;;12.65;7.85;;;15.80;99.90;;;;;;5054881;28;20035;-51
2023/10/11 01:21:12;;;;;;;12.75;8.23;;;15.90;99.90;;;;;;5052262;28;20830;-48
2023/10/11 01:23:38;;;;;;;14.23;8.00;;;15.80;99.90;;;;;;5050992;28;20414;-51
2023/10/11 01:26:06;;;;;;;11.57;8.13;;;15.70;99.90;;;;;;5056982;28;20432;-49
2023/10/11 01:28:37;;;;;;;13.30;8.18;;;15.70;99.90;;;;;;5055247;28;20426;-49
2023/10/11 01:31:08;;;;;;;11.57;7.80;;;15.70;99.90;;;;;;5055239;28;20066;-48
2023/10/11 01:33:42;;;;;;;12.30;7.97;;;15.70;99.90;;;;;;5052386;28;20047;-49
2023/10/11 01:36:14;;;;;;;11.73;7.90;;;15.70;99.90;;;;;;5053685;28;20352;-52
2023/10/11 01:38:50;;;;;;;14.93;8.80;;;15.70;99.90;;;;;;5056455;28;20068;-51
2023/10/11 01:41:19;;;;;;;12.27;8.13;;;15.70;99.90;;;;;;5054650;28;20052;-48
2023/10/11 01:43:49;;;;;;;13.55;8.70;;;15.70;99.90;;;;;;5066299;28;20037;-48
2023/10/11 01:46:27;;;;;;;12.45;8.48;;;15.70;99.90;;;;;;5040275;28;20080;-49
2023/10/11 01:48:54;;;;;;;14.68;8.18;;;15.80;99.90;;;;;;5056531;28;20051;-48
2023/10/11 01:51:26;;;;;;;10.88;8.95;;;15.60;99.90;;;;;;5061491;28;20036;-48
2023/10/11 01:54:06;;;;;;;11.98;8.60;;;15.80;99.90;;;;;;5059078;28;20048;-51
2023/10/11 01:56:32;;;;;;;11.52;8.43;;;15.70;99.90;;;;;;5057929;28;20032;-50
2023/10/11 01:59:00;;;;;;;14.50;8.77;;;15.60;99.90;;;;;;5058475;28;20504;-50
2023/10/11 02:01:28;;;;;;;13.70;8.07;;;15.60;99.90;;;;;;5057402;28;20036;-49
2023/10/11 02:04:03;;;;;;;14.63;8.88;;;15.60;99.90;;;;;;5058024;28;20416;-51
2023/10/11 02:06:32;;;;;;;12.30;8.70;;;15.60;99.90;;;;;;5059756;28;20091;-49
2023/10/11 02:08:58;;;;;;;14.63;9.48;;;15.70;99.90;;;;;;5064210;28;20457;-49
2023/10/11 02:11:25;;;;;;;13.10;8.43;;;15.70;99.90;;;;;;5056677;28;20047;-50
2023/10/11 02:13:52;;;;;;;15.00;9.57;;;15.60;99.90;;;;;;5059516;28;20044;-50
2023/10/11 02:16:18;;;;;;;17.75;9.23;;;15.70;99.90;;;;;;5065660;28;20423;-50
2023/10/11 02:18:51;;;;;;;13.82;8.95;;;15.60;99.90;;;;;;5066241;28;20086;-48
2023/10/11 02:21:20;;;;;;;12.45;8.68;;;15.70;99.90;;;;;;5060569;28;20063;-50
2023/10/11 02:23:46;;;;;;;12.82;7.97;;;15.80;99.90;;;;;;5066822;28;20437;-48
2023/10/11 02:26:14;;;;;;;17.08;8.60;;;15.60;99.90;;;;;;5062408;28;20037;-52
2023/10/11 02:28:40;;;;;;;13.18;8.90;;;15.60;99.90;;;;;;5064087;28;20372;-48
2023/10/11 02:31:07;;;;;;;13.57;8.88;;;15.50;99.90;;;;;;5054970;28;20045;-50
2023/10/11 02:33:33;;;;;;;13.32;8.75;;;15.40;99.90;;;;;;5061768;28;20067;-49
2023/10/11 02:36:09;;;;;;;13.13;9.00;;;15.40;99.90;;;;;;5065207;28;20041;-49
2023/10/11 02:38:47;;;;;;;12.90;9.02;;;15.40;99.90;;;;;;5064008;28;20044;-48
2023/10/11 02:41:13;;;;;;;14.70;8.82;;;15.30;99.90;;;;;;5055959;28;20115;-49
2023/10/11 02:43:48;;;;;;;15.98;9.23;;;15.30;99.90;;;;;;5061609;28;20140;-49
2023/10/11 02:46:15;;;;;;;12.90;9.27;;;15.30;99.90;;;;;;5058893;28;20036;-50
2023/10/11 02:48:46;;;;;;;13.50;8.90;;;15.30;99.90;;;;;;5054462;28;20045;-49
2023/10/11 02:51:17;;;;;;;13.35;8.73;;;15.30;99.90;;;;;;5066028;28;20045;-48
2023/10/11 02:53:46;;;;;;;14.30;9.98;;;15.30;99.90;;;;;;5059954;28;20053;-50
2023/10/11 02:56:13;;;;;;;18.63;10.00;;;15.30;99.90;;;;;;5064503;28;20316;-50
2023/10/11 02:58:39;;;;;;;11.43;9.30;;;15.30;99.90;;;;;;5062545;28;20059;-50
2023/10/11 03:01:14;;;;;;;16.02;10.00;;;15.20;99.90;;;;;;5061187;28;20490;-48
2023/10/11 03:03:43;;;;;;;16.90;9.52;;;15.20;99.90;;;;;;5059913;28;20490;-48
2023/10/11 03:06:10;;;;;;;16.02;9.82;;;15.20;99.90;;;;;;5059065;28;20052;-48
2023/10/11 03:08:37;;;;;;;15.20;9.90;;;15.10;99.90;;;;;;5061762;28;20041;-49
2023/10/11 03:11:08;;;;;;;16.42;10.15;;;15.20;99.90;;;;;;5057887;28;20051;-48
2023/10/11 03:13:53;;;;;;;17.55;10.52;;;15.10;99.90;;;;;;5054950;28;20033;-49
2023/10/11 03:16:19;;;;;;;17.33;9.63;;;15.10;99.90;;;;;;5065012;28;20045;-48
2023/10/11 03:18:48;;;;;;;15.98;10.35;;;15.20;99.90;;;;;;5057053;28;20546;-50
2023/10/11 03:21:21;;;;;;;14.45;9.75;;;15.10;99.90;;;;;;5057937;28;20119;-48
2023/10/11 03:23:49;;;;;;;11.82;9.32;;;15.20;99.90;;;;;;5056066;28;20717;-49
2023/10/11 03:26:19;;;;;;;14.55;9.38;;;15.00;99.90;;;;;;5066595;28;20029;-49
2023/10/11 03:28:57;;;;;;;14.18;10.18;;;15.00;99.90;;;;;;5059634;28;20505;-47
2023/10/11 03:31:28;;;;;;;;;;;15.00;99.90;;;;;;5051739;28;20044;-47
2023/10/11 03:33:58;;;;;;;14.60;9.45;;;15.00;99.90;;;;;;5059931;28;19929;-48
2023/10/11 03:36:31;;;;;;;14.07;9.25;;;15.00;99.90;;;;;;5055187;28;20076;-48
2023/10/11 03:38:58;;;;;;;15.05;9.40;;;15.00;99.90;;;;;;5062900;28;20069;-47
2023/10/11 03:41:35;;;;;;;18.17;9.65;;;14.90;99.90;;;;;;5053247;28;20052;-49
2023/10/11 03:44:09;;;;;;;19.20;10.05;;;14.90;99.90;;;;;;5060711;28;20061;-50
2023/10/11 03:46:36;;;;;;;17.67;9.60;;;14.90;99.90;;;;;;5057649;28;20045;-49
2023/10/11 03:49:13;;;;;;;13.98;9.65;;;14.80;99.90;;;;;;5060166;28;20059;-51
2023/10/11 03:51:43;;;;;;;14.70;9.20;;;14.80;99.90;;;;;;5053927;28;20048;-50
2023/10/11 03:54:11;;;;;;;14.13;9.57;;;14.80;99.90;;;;;;5039589;28;20044;-51
2023/10/11 03:56:45;;;;;;;14.50;9.93;;;14.70;99.90;;;;;;5051135;28;20166;-51
2023/10/11 03:59:12;;;;;;;12.88;8.90;;;14.70;99.90;;;;;;5058209;28;20041;-49
2023/10/11 04:01:38;;;;;;;15.88;9.73;;;14.60;99.90;;;;;;5034468;28;20119;-51
2023/10/11 04:04:05;;;;;;;15.23;9.48;;;14.60;99.90;;;;;;5057923;28;20076;-48
2023/10/11 04:06:34;;;;;;;12.07;8.70;;;14.70;99.90;;;;;;5060766;28;20055;-51
2023/10/11 04:09:03;;;;;;;13.68;9.52;;;14.60;99.90;;;;;;5056835;28;20086;-49
2023/10/11 04:11:47;;;;;;;13.07;9.02;;;14.50;99.90;;;;;;5054978;28;20033;-49
2023/10/11 04:14:23;;;;;;;14.95;9.02;;;14.70;99.90;;;;;;5052395;28;20075;-50
2023/10/11 04:16:52;;;;;;;18.20;9.38;;;14.60;99.90;;;;;;5063408;28;20055;-49
2023/10/11 04:19:21;;;;;;;16.20;9.88;;;14.60;99.90;;;;;;5055790;28;20048;-51
2023/10/11 04:24:19;;;;;;;16.55;8.82;;;14.60;99.90;;;;;;5056782;28;20082;-48
2023/10/11 04:26:54;;;;;;;14.18;9.05;;;14.70;99.90;;;;;;5056554;28;20047;-48
2023/10/11 04:29:23;;;;;;;13.60;9.23;;;14.60;99.90;;;;;;5053534;28;20052;-48
2023/10/11 04:34:33;;;;;;;12.10;8.88;;;14.60;99.90;;;;;;5052396;28;20044;-48
2023/10/11 04:37:04;;;;;;;14.27;9.98;;;14.70;99.90;;;;;;5056632;28;20048;-48
2023/10/11 04:39:49;;;;;;;16.35;9.65;;;14.60;99.90;;;;;;5053481;28;20462;-50
2023/10/11 04:42:19;;;;;;;17.33;10.15;;;14.70;99.90;;;;;;5066676;28;20040;-48
2023/10/11 04:44:54;;;;;;;14.52;9.10;;;14.70;99.90;;;;;;5062338;28;20088;-51
2023/10/11 04:47:21;;;;;;;12.68;9.15;;;14.70;99.90;;;;;;5056170;28;20475;-51
2023/10/11 04:49:48;;;;;;;13.02;9.68;;;14.70;99.90;;;;;;5058169;28;20067;-49
2023/10/11 04:52:22;;;;;;;15.63;10.23;;;14.70;99.90;;;;;;5061711;28;20106;-51
2023/10/11 04:54:54;;;;;;;14.98;9.77;;;14.70;99.90;;;;;;5058727;28;20072;-48
2023/10/11 04:57:40;;;;;;;15.32;10.05;;;14.70;99.90;;;;;;5055363;28;20048;-48
2023/10/11 05:00:11;;;;;;;15.32;9.30;;;14.70;99.90;;;;;;5059974;28;20044;-49
2023/10/11 05:02:38;;;;;;;14.30;9.57;;;14.70;99.90;;;;;;5053462;28;20098;-51
2023/10/11 05:05:10;;;;;;;18.17;9.90;;;14.80;99.90;;;;;;5055526;28;20044;-48
2023/10/11 05:07:42;;;;;;;17.55;10.60;;;14.70;99.90;;;;;;5061999;28;20302;-47
2023/10/11 05:12:58;;;;;;;14.82;10.48;;;14.80;99.90;;;;;;5065033;28;20049;-47
2023/10/11 05:15:34;;;;;;;13.77;9.82;;;14.80;99.90;;;;;;5053595;28;20573;-50
2023/10/11 05:18:00;;;;;;;14.85;9.90;;;14.90;99.90;;;;;;5057809;28;20399;-51
2023/10/11 05:23:06;;;;;;;18.63;10.88;;;15.00;99.90;;;;;;5055291;28;20045;-49
2023/10/11 05:31:01;;;;;;;17.33;10.48;;;14.90;99.90;;;;;;5058109;28;20053;-48
2023/10/11 05:33:41;;;;;;;18.63;11.38;;;15.00;99.90;;;;;;5054794;28;20461;-50
2023/10/11 05:36:16;;;;;;;12.52;10.57;;;15.00;99.90;;;;;;5060953;28;20409;-49
2023/10/11 05:52:28;;;;;;;20.00;12.02;;;14.70;99.90;;;;;;5069980;28;20048;-49
2023/10/11 05:54:54;;;;;;;20.13;11.73;;;14.60;99.90;;;;;;5065044;28;20044;-50
2023/10/11 05:57:23;;;;;;;20.15;11.85;;;14.90;99.90;;;;;;5061526;28;20047;-49
2023/10/11 05:59:49;;;;;;;18.27;11.70;;;14.90;99.90;;;;;;5065425;28;20040;-48
2023/10/11 06:02:15;;;;;;;18.30;11.18;;;14.80;99.90;;;;;;5062920;28;20037;-48
2023/10/11 06:04:41;;;;;;;19.75;12.57;;;14.70;99.90;;;;;;5065530;28;20036;-48
2023/10/11 06:07:07;;;;;;;16.85;13.20;;;14.90;99.90;;;;;;5067579;28;20095;-48
2023/10/11 06:09:41;;;;;;;17.60;12.05;;;14.80;99.90;;;;;;5067188;28;20046;-48
2023/10/11 06:12:26;;;;;;;19.17;11.95;;;14.80;99.90;;;;;;5070388;28;20435;-47
2023/10/11 06:14:53;;;;;;;17.80;11.93;;;14.80;99.90;;;;;;5066755;28;20075;-48
2023/10/11 06:17:21;;;;;;;18.48;12.40;;;14.80;99.90;;;;;;5059863;28;20475;-51
2023/10/11 06:19:53;;;;;;;16.52;12.13;;;14.80;99.90;;;;;;5070025;28;20107;-48
2023/10/11 06:22:21;;;;;;;16.98;12.07;;;14.70;99.90;;;;;;5059585;28;20048;-51
2023/10/11 06:24:47;;;;;;;22.15;12.73;;;14.80;99.90;;;;;;5066829;28;20494;-48
2023/10/11 06:29:57;;;;;;;18.58;12.68;;;15.10;99.90;;;;;;5064633;28;20128;-48
2023/10/11 06:32:24;;;;;;;18.92;12.07;;;14.90;99.90;;;;;;5068537;28;20048;-49
2023/10/11 06:34:51;;;;;;;19.90;12.57;;;14.80;99.90;;;;;;5067519;28;20041;-48
2023/10/11 06:37:19;;;;;;;21.30;12.95;;;14.90;99.90;;;;;;5058988;28;20529;-49
2023/10/11 06:42:18;;;;;;;20.65;12.43;;;;;;;;;;5055997;28;19967;-48
2023/10/11 06:44:48;;;;;;;17.25;12.30;;;15.00;99.90;;;;;;5059635;28;20081;-50
2023/10/11 06:47:14;;;;;;;17.38;12.05;;;15.00;99.90;;;;;;5067855;28;20115;-48
2023/10/11 06:49:47;;;;;;;19.95;13.38;;;15.10;99.90;;;;;;5057294;28;20132;-48
2023/10/11 06:52:19;;;;;;;17.80;12.35;;;15.10;99.90;;;;;;5071702;28;20045;-51
2023/10/11 06:54:46;;;;;;;16.90;12.95;;;15.20;99.90;;;;;;5072621;28;20048;-48
2023/10/11 06:57:21;;;;;;;20.27;12.40;;;15.30;99.90;;;;;;5072534;28;20131;-48
2023/10/11 06:59:51;;;;;;;17.85;12.98;;;15.30;99.90;;;;;;5072866;28;20290;-50
2023/10/11 07:02:31;;;;;;;17.58;12.50;;;15.40;99.90;;;;;;5072578;28;20036;-48
2023/10/11 07:05:06;;;;;;;18.17;13.00;;;15.50;99.90;;;;;;5072068;28;20056;-51
2023/10/11 07:07:32;;;;;;;19.25;13.73;;;15.60;99.90;;;;;;5071903;28;20068;-50
2023/10/11 07:10:00;;;;;;;20.80;13.00;;;15.70;99.90;;;;;;5060087;28;20087;-49
2023/10/11 07:12:28;;;;;;;;;;;15.80;99.90;;;;;;5055510;28;20395;-49
2023/10/11 07:14:58;;;;;;;19.58;13.00;;;15.80;99.90;;;;;;5071496;28;20366;-50
2023/10/11 07:17:32;;;;;;;18.50;13.63;;;15.90;99.90;;;;;;5071806;28;20406;-51
2023/10/11 07:19:57;;;;;;;20.10;13.57;;;15.90;99.90;;;;;;5072005;28;20063;-48
2023/10/11 07:22:26;;;;;;;19.48;12.57;;;15.90;99.90;;;;;;5070816;28;20049;-48
2023/10/11 07:25:18;;;;;;;18.80;13.30;;;15.90;99.90;;;;;;5072181;28;20065;-51
2023/10/11 07:27:43;;;;;;;22.40;14.18;;;15.90;99.90;;;;;;5072951;28;20071;-47
2023/10/11 07:30:16;;;;;;;18.58;13.13;;;15.90;99.90;;;;;;5070760;28;20554;-47
2023/10/11 07:32:45;;;;;;;23.73;13.88;;;15.90;99.90;;;;;;5070351;28;20044;-48
2023/10/11 07:35:27;;;;;;;25.65;14.68;;;15.90;99.90;;;;;;5071356;28;20036;-51
2023/10/11 07:37:53;;;;;;;22.13;14.65;;;15.90;99.90;;;;;;5066998;28;20048;-48
2023/10/11 07:40:31;;;;;;;19.90;14.20;;;15.90;99.90;;;;;;5071245;28;20081;-47
2023/10/11 07:42:57;;;;;;;20.60;15.07;;;15.90;99.90;;;;;;5070522;28;20044;-47
2023/10/11 07:45:26;;;;;;;19.02;14.98;;;15.90;99.90;;;;;;5071986;28;20057;-49
2023/10/11 07:47:52;;;;;;;20.83;14.43;;;16.00;99.90;;;;;;5060248;28;20123;-48
2023/10/11 07:50:24;;;;;;;20.67;14.88;;;16.00;99.90;;;;;;5061712;28;20037;-48
2023/10/11 07:52:51;;;;;;;24.98;15.65;;;16.00;99.90;;;;;;5063475;28;20040;-51
2023/10/11 07:55:17;;;;;;;25.45;16.42;;;16.00;99.90;;;;;;5065399;28;20036;-51
2023/10/11 07:57:46;;;;;;;24.77;16.33;;;16.10;99.90;;;;;;5071362;28;20061;-48
2023/10/11 08:00:17;;;;;;;29.15;18.17;;;16.10;99.90;;;;;;5053206;28;20377;-51
2023/10/11 08:03:05;;;;;;;25.88;17.05;;;16.20;99.90;;;;;;5068478;28;20052;-48
2023/10/11 08:05:35;;;;;;;26.50;17.88;;;16.20;99.90;;;;;;5055748;28;20448;-49
2023/10/11 08:08:01;;;;;;;28.52;18.05;;;16.30;99.90;;;;;;5052879;28;20045;-50
2023/10/11 08:10:33;;;;;;;29.83;19.27;;;16.30;99.90;;;;;;5071492;28;20056;-50
2023/10/11 08:13:02;;;;;;;32.03;18.98;;;16.50;99.90;;;;;;5053783;28;20044;-48
2023/10/11 08:15:29;;;;;;;31.38;19.50;;;16.50;99.90;;;;;;5054959;28;20055;-49
2023/10/11 08:17:54;;;;;;;28.73;19.33;;;16.50;99.90;;;;;;5052523;28;20127;-51
2023/10/11 08:20:24;;;;;;;31.25;20.00;;;16.60;99.90;;;;;;5062913;28;20123;-48
2023/10/11 08:22:55;;;;;;;29.27;19.27;;;16.60;99.90;;;;;;5071344;28;20044;-50
2023/10/11 08:25:27;;;;;;;29.85;19.98;;;;;;;;;;5059578;28;20598;-48
2023/10/11 08:28:10;;;;;;;35.22;20.73;;;16.70;99.90;;;;;;5064274;28;20115;-50
2023/10/11 08:30:37;;;;;;;30.77;19.98;;;16.70;99.90;;;;;;5061577;28;20052;-50
2023/10/11 08:33:04;;;;;;;28.35;19.52;;;16.70;99.90;;;;;;5061499;28;20037;-48
2023/10/11 08:35:32;;;;;;;32.92;20.45;;;16.60;99.90;;;;;;5059276;28;20049;-48
2023/10/11 08:38:05;;;;;;;31.50;20.77;;;16.60;99.90;;;;;;5056511;28;20071;-48
2023/10/11 08:40:37;;;;;;;34.50;21.02;;;16.60;99.90;;;;;;5063852;28;20032;-49
2023/10/11 08:43:03;;;;;;;33.92;20.90;;;16.70;99.90;;;;;;5062937;28;20041;-49
2023/10/11 08:45:33;;;;;;;31.02;20.98;;;16.70;99.90;;;;;;5055396;28;20074;-49
2023/10/11 08:48:06;;;;;;;31.20;20.38;;;16.70;99.90;;;;;;5062425;28;20049;-46
2023/10/11 08:50:36;;;;;;;34.28;21.98;;;16.80;99.90;;;;;;5062825;28;20025;-49
2023/10/11 08:53:08;;;;;;;35.35;21.67;;;16.80;99.90;;;;;;5057066;28;20060;-47
2023/10/11 08:55:36;;;;;;;37.25;21.85;;;16.90;99.90;;;;;;5067473;28;20041;-48
2023/10/11 08:58:05;;;;;;;31.60;21.58;;;16.90;99.90;;;;;;5060865;28;20040;-48
2023/10/11 09:00:33;;;;;;;32.88;20.58;;;16.90;99.90;;;;;;5062467;28;20049;-50
2023/10/11 09:03:18;;;;;;;30.50;20.85;;;16.90;99.90;;;;;;5069257;28;20071;-48
2023/10/11 09:05:44;;;;;;;35.40;21.60;;;16.80;99.90;;;;;;5061192;28;20040;-48
2023/10/11 09:08:27;;;;;;;32.65;21.98;;;16.90;99.90;;;;;;5061790;28;20063;-49
2023/10/11 09:11:06;;;;;;;30.67;21.40;;;16.80;99.90;;;;;;5063678;28;20048;-48
2023/10/11 09:13:36;;;;;;;35.78;20.63;;;16.90;99.90;;;;;;5060306;28;20117;-52
2023/10/11 09:16:08;;;;;;;31.02;21.50;;;16.80;99.90;;;;;;5055907;28;20367;-51
2023/10/11 09:18:34;;;;;;;34.58;22.02;;;16.90;99.90;;;;;;5060542;28;20041;-51
2023/10/11 09:21:09;;;;;;;33.88;22.30;;;16.90;99.90;;;;;;5070387;28;20123;-52
2023/10/11 09:23:46;;;;;;;30.90;21.67;;;16.90;99.90;;;;;;5070352;28;20505;-49
2023/10/11 09:26:20;;;;;;;35.03;20.93;;;16.90;99.90;;;;;;5066591;28;20540;-51
2023/10/11 09:28:56;;;;;;;34.85;22.33;;;16.80;99.90;;;;;;5070922;28;20483;-48
2023/10/11 09:31:23;;;;;;;38.47;22.35;;;16.80;99.90;;;;;;5052164;28;20123;-50
2023/10/11 09:33:51;;;;;;;33.67;22.27;;;16.90;99.90;;;;;;5052235;28;20080;-52
2023/10/11 09:36:20;;;;;;;41.25;23.10;;;16.80;99.90;;;;;;5054110;28;20053;-50
2023/10/11 09:38:54;;;;;;;29.38;20.90;;;16.80;99.90;;;;;;5062240;28;20044;-48
2023/10/11 09:41:25;;;;;;;28.58;21.08;;;16.80;99.90;;;;;;5055597;28;20045;-51
2023/10/11 09:43:59;;;;;;;33.88;21.63;;;16.80;99.90;;;;;;5060932;28;20056;-49
2023/10/11 09:46:29;;;;;;;33.28;21.50;;;16.80;99.90;;;;;;5057864;28;20111;-52
2023/10/11 09:49:00;;;;;;;31.05;22.13;;;16.90;99.90;;;;;;5064743;28;20040;-49
2023/10/11 09:51:26;;;;;;;36.28;21.67;;;16.80;99.90;;;;;;5064768;28;20057;-51
2023/10/11 09:53:53;;;;;;;32.90;21.85;;;16.80;99.90;;;;;;5052977;28;20360;-48
2023/10/11 09:56:30;;;;;;;28.52;21.55;;;16.80;99.90;;;;;;5062099;28;20078;-49
2023/10/11 09:59:30;;;;;;;29.92;20.90;;;16.80;99.90;;;;;;5060773;28;20387;-52
2023/10/11 10:02:28;;;;;;;34.17;22.58;;;16.80;99.90;;;;;;5003530;28;20046;-50
2023/10/11 10:04:55;;;;;;;36.47;22.33;;;16.80;99.90;;;;;;5002201;28;20057;-52
2023/10/11 10:07:25;;;;;;;31.65;22.08;;;16.80;99.90;;;;;;5005884;28;20097;-51
2023/10/11 10:09:53;;;;;;;35.83;22.33;;;16.80;99.90;;;;;;4994044;28;20054;-50
2023/10/11 10:12:25;;;;;;;33.58;22.08;;;16.90;99.90;;;;;;5001551;28;20554;-52
2023/10/11 10:15:10;;;;;;;32.45;22.65;;;16.80;99.90;;;;;;5004953;28;20149;-48
2023/10/11 10:17:37;;;;;;;32.90;22.67;;;16.80;99.90;;;;;;5004050;28;20101;-48
2023/10/11 10:20:33;;;;;;;35.38;22.77;;;16.80;99.90;;;;;;5007254;28;20517;-50
2023/10/11 10:23:14;;;;;;;33.65;23.23;;;16.80;99.90;;;;;;5010351;28;20084;-50
2023/10/11 10:25:46;;;;;;;36.28;24.45;;;16.80;99.90;;;;;;5003642;28;20050;-48
2023/10/11 10:28:31;;;;;;;36.40;24.00;;;16.80;99.90;;;;;;5001961;28;20053;-50
2023/10/11 10:31:04;;;;;;;36.70;24.77;;;16.70;99.90;;;;;;5009321;28;20070;-50
2023/10/11 10:33:35;;;;;;;31.35;23.55;;;16.80;99.90;;;;;;5003286;28;20158;-49
2023/10/11 10:36:19;;;;;;;36.60;22.77;;;16.80;99.90;;;;;;5004848;28;20073;-50
2023/10/11 10:39:12;;;;;;;38.63;24.70;;;16.80;99.90;;;;;;5067053;28;20044;-48
2023/10/11 10:41:41;;;;;;;37.55;23.45;;;16.80;99.90;;;;;;5054742;28;20583;-48
2023/10/11 10:44:17;;;;;;;37.97;23.20;;;17.00;99.90;;;;;;5058028;28;20084;-51
2023/10/11 10:46:50;;;;;;;33.97;22.88;;;17.00;99.90;;;;;;5063461;28;20041;-48
2023/10/11 10:49:21;;;;;;;35.17;22.83;;;17.30;99.90;;;;;;5063091;28;20040;-51
2023/10/11 10:51:53;;;;;;;32.85;23.23;;;17.40;99.90;;;;;;5064882;28;20375;-49
2023/10/11 10:54:23;;;;;;;32.22;22.17;;;17.70;99.90;;;;;;5060995;28;20036;-49
2023/10/11 10:56:53;;;;;;;30.17;22.25;;;17.70;99.90;;;;;;5063510;28;20105;-51
2023/10/11 10:59:20;;;;;;;27.50;20.58;;;17.90;99.90;;;;;;5059485;28;20041;-49
2023/10/11 11:01:48;;;;;;;30.55;19.95;;;18.10;99.90;;;;;;5055494;28;20097;-48
2023/10/11 11:04:20;;;;;;;29.13;19.33;;;18.30;99.90;;;;;;5066651;28;20040;-51
2023/10/11 11:06:47;;;;;;;27.13;19.33;;;;;;;;;;5062388;28;20086;-51
2023/10/11 11:09:25;;;;;;;26.60;17.87;;;18.50;99.90;;;;;;5061648;28;20448;-51
2023/10/11 11:11:58;;;;;;;26.73;16.38;;;18.60;99.90;;;;;;5062741;28;20041;-51
2023/10/11 11:14:25;;;;;;;23.55;16.08;;;18.60;99.90;;;;;;5067139;28;20059;-49
2023/10/11 11:16:58;;;;;;;20.17;14.90;;;18.50;99.90;;;;;;5061421;28;20165;-49
2023/10/11 11:19:26;;;;;;;23.38;15.40;;;18.60;99.90;;;;;;5066821;28;20064;-51
2023/10/11 11:22:11;;;;;;;24.73;16.08;;;18.60;99.90;;;;;;5071966;28;20036;-51
2023/10/11 11:24:41;;;;;;;23.77;15.75;;;18.60;99.90;;;;;;5063288;28;20494;-50
2023/10/11 11:27:26;;;;;;;23.50;16.35;;;18.70;99.90;;;;;;5072791;28;20070;-48
2023/10/11 11:30:02;;;;;;;24.77;16.98;;;18.70;99.90;;;;;;5071087;28;20110;-48
2023/10/11 11:32:38;;;;;;;24.75;16.40;;;18.70;99.90;;;;;;5072549;28;20044;-52
2023/10/11 11:38:07;;;;;;;21.83;14.80;;;19.10;99.90;;;;;;5060274;28;20053;-48
2023/10/11 11:40:47;;;;;;;20.33;14.25;;;;;;;;;;5061224;28;20288;-49
2023/10/11 11:43:13;;;;;;;19.27;13.65;;;19.30;99.90;;;;;;5053197;28;20047;-48
2023/10/11 11:45:38;;;;;;;21.52;12.65;;;19.50;99.90;;;;;;5071106;28;20064;-50
2023/10/11 11:48:07;;;;;;;19.23;11.45;;;19.60;99.90;;;;;;5067362;28;20048;-48
2023/10/11 11:50:33;;;;;;;20.63;11.68;;;19.50;99.90;;;;;;5070461;28;20441;-48
2023/10/11 11:53:03;;;;;;;16.08;11.20;;;19.50;99.90;;;;;;5071439;28;20044;-48
2023/10/11 11:55:29;;;;;;;21.00;10.45;;;19.40;99.90;;;;;;5070216;28;20068;-48
2023/10/11 11:57:55;;;;;;;14.63;10.55;;;19.30;99.90;;;;;;5066884;28;20047;-51
2023/10/11 12:02:55;;;;;;;24.08;11.05;;;19.30;99.90;;;;;;5068630;28;20040;-48
2023/10/11 12:05:22;;;;;;;17.88;11.70;;;19.30;99.90;;;;;;5060095;28;20091;-48
2023/10/11 12:07:51;;;;;;;15.43;10.95;;;19.30;99.90;;;;;;5052303;28;20033;-48
2023/10/11 12:10:25;;;;;;;17.63;11.60;;;19.30;99.90;;;;;;5052911;28;20041;-50
2023/10/11 12:13:01;;;;;;;20.17;12.27;;;19.50;99.90;;;;;;5060584;28;20082;-48
2023/10/11 12:15:28;;;;;;;19.58;11.85;;;19.70;99.90;;;;;;5055833;28;20044;-50
2023/10/11 12:17:54;;;;;;;22.52;12.05;;;19.80;99.90;;;;;;5056436;28;20052;-49
2023/10/11 12:20:22;;;;;;;18.27;11.60;;;20.00;99.90;;;;;;5053720;28;20037;-48
2023/10/11 12:22:48;;;;;;;21.33;12.07;;;20.10;99.90;;;;;;5057130;28;20048;-49
2023/10/11 12:25:14;;;;;;;19.85;13.15;;;20.10;99.90;;;;;;5060999;28;20091;-48
2023/10/11 12:27:43;;;;;;;21.63;11.95;;;20.10;99.90;;;;;;5059525;28;20119;-50
2023/10/11 12:30:19;;;;;;;19.45;11.40;;;20.20;99.90;;;;;;5058992;28;20124;-52
2023/10/11 12:32:46;;;;;;;17.20;10.85;;;20.10;99.90;;;;;;5061666;28;20053;-48
2023/10/11 12:35:12;;;;;;;17.77;10.85;;;20.10;99.90;;;;;;5054770;28;20051;-48
2023/10/11 12:37:40;;;;;;;15.37;10.80;;;20.00;99.90;;;;;;5059783;28;20077;-51
2023/10/11 12:40:13;;;;;;;17.42;10.52;;;20.00;99.90;;;;;;5063603;28;20287;-48
2023/10/11 12:42:39;;;;;;;17.73;10.65;;;20.10;99.90;;;;;;5060532;28;20041;-52
2023/10/11 12:45:08;;;;;;;15.77;10.35;;;20.10;99.90;;;;;;5059974;28;20056;-50
2023/10/11 12:47:34;;;;;;;16.50;10.73;;;20.10;99.90;;;;;;5061038;28;20055;-51
2023/10/11 12:50:02;;;;;;;20.87;9.93;;;20.10;99.90;;;;;;5058661;28;20041;-49
2023/10/11 12:52:30;;;;;;;14.18;10.20;;;20.40;99.90;;;;;;5054912;28;20041;-51
2023/10/11 12:54:57;;;;;;;18.25;9.73;;;20.50;99.90;;;;;;5061724;28;20052;-49
2023/10/11 12:57:23;;;;;;;15.50;9.55;;;20.60;99.90;;;;;;5058571;28;20119;-49
2023/10/11 12:59:49;;;;;;;13.70;9.52;;;20.70;99.90;;;;;;5066823;28;20047;-48
2023/10/11 13:02:21;;;;;;;14.98;9.52;;;20.80;99.90;;;;;;5056102;28;20049;-48
2023/10/11 13:04:47;;;;;;;14.57;8.57;;;20.80;99.90;;;;;;5058623;28;20444;-48
2023/10/11 13:07:15;;;;;;;14.27;8.15;;;20.80;99.90;;;;;;5065514;28;20078;-48
2023/10/11 13:09:41;;;;;;;14.55;9.13;;;20.90;99.90;;;;;;5063084;28;20040;-48
2023/10/11 13:12:08;;;;;;;14.57;9.07;;;20.90;99.90;;;;;;5063402;28;22270;-51
2023/10/11 13:14:35;;;;;;;13.55;8.95;;;21.00;99.90;;;;;;5058492;28;20049;-48
2023/10/11 13:17:05;;;;;;;16.65;9.05;;;21.00;99.90;;;;;;5055675;28;20458;-50
2023/10/11 13:19:31;;;;;;;13.95;8.73;;;21.30;99.90;;;;;;5060981;28;20068;-48
2023/10/11 13:21:58;;;;;;;15.57;8.35;;;21.30;99.90;;;;;;5055842;28;20094;-49
2023/10/11 13:24:25;;;;;;;15.07;8.37;;;21.40;99.90;;;;;;5063256;28;20094;-48
2023/10/11 13:26:54;;;;;;;16.25;8.88;;;21.60;99.90;;;;;;5061267;28;20048;-49
2023/10/11 13:29:21;;;;;;;16.35;8.68;;;21.60;99.90;;;;;;5068150;28;20040;-50
2023/10/11 13:31:56;;;;;;;17.03;8.50;;;21.60;99.90;;;;;;5062742;28;20087;-50
2023/10/11 13:34:28;;;;;;;18.90;9.00;;;21.60;99.90;;;;;;5056938;28;20479;-48